sensor_id;sensor_type;location;lat;lon;timestamp;pressure;altitude;pressure_sealevel;temperature
24740;BMP280;45234;48.148;17.128;2024-03-25T00:00:12;98940.84;;;7.92
24740;BMP280;45234;48.148;17.128;2024-03-25T00:02:39;98941.06;;;7.97
24740;BMP280;45234;48.148;17.128;2024-03-25T00:05:06;98930.13;;;7.95
24740;BMP280;45234;48.148;17.128;2024-03-25T00:07:38;98926.75;;;7.94
24740;BMP280;45234;48.148;17.128;2024-03-25T00:10:05;98933.34;;;7.97
24740;BMP280;45234;48.148;17.128;2024-03-25T00:12:37;98929.34;;;7.94
24740;BMP280;45234;48.148;17.128;2024-03-25T00:15:04;98925.59;;;7.97
24740;BMP280;45234;48.148;17.128;2024-03-25T00:17:32;98932.13;;;7.93
24740;BMP280;45234;48.148;17.128;2024-03-25T00:19:58;98920.44;;;7.97
24740;BMP280;45234;48.148;17.128;2024-03-25T00:22:24;98922.97;;;8.04
24740;BMP280;45234;48.148;17.128;2024-03-25T00:24:52;98915.47;;;8.09
24740;BMP280;45234;48.148;17.128;2024-03-25T00:27:18;98911.44;;;8.13
24740;BMP280;45234;48.148;17.128;2024-03-25T00:29:45;98914.25;;;8.11
24740;BMP280;45234;48.148;17.128;2024-03-25T00:32:11;98911.06;;;8.16
24740;BMP280;45234;48.148;17.128;2024-03-25T00:34:37;98913.06;;;8.20
24740;BMP280;45234;48.148;17.128;2024-03-25T00:37:04;98909.47;;;8.21
24740;BMP280;45234;48.148;17.128;2024-03-25T00:39:30;98908.28;;;8.17
24740;BMP280;45234;48.148;17.128;2024-03-25T00:42:00;98907.91;;;8.20
24740;BMP280;45234;48.148;17.128;2024-03-25T00:44:27;98906.31;;;8.19
24740;BMP280;45234;48.148;17.128;2024-03-25T00:46:53;98898.13;;;8.22
24740;BMP280;45234;48.148;17.128;2024-03-25T00:49:19;98881.25;;;8.26
24740;BMP280;45234;48.148;17.128;2024-03-25T00:51:44;98891.78;;;8.25
24740;BMP280;45234;48.148;17.128;2024-03-25T00:54:10;98885.41;;;8.27
24740;BMP280;45234;48.148;17.128;2024-03-25T00:56:36;98895.38;;;8.31
24740;BMP280;45234;48.148;17.128;2024-03-25T00:59:02;98886.03;;;8.29
24740;BMP280;45234;48.148;17.128;2024-03-25T01:01:35;98886.03;;;8.23
24740;BMP280;45234;48.148;17.128;2024-03-25T01:04:04;98876.50;;;8.23
24740;BMP280;45234;48.148;17.128;2024-03-25T01:06:30;98879.72;;;8.19
24740;BMP280;45234;48.148;17.128;2024-03-25T01:08:56;98880.72;;;8.11
24740;BMP280;45234;48.148;17.128;2024-03-25T01:11:22;98888.47;;;7.98
24740;BMP280;45234;48.148;17.128;2024-03-25T01:13:48;98881.31;;;7.93
24740;BMP280;45234;48.148;17.128;2024-03-25T01:16:14;98872.63;;;7.88
24740;BMP280;45234;48.148;17.128;2024-03-25T01:18:40;98871.81;;;7.87
24740;BMP280;45234;48.148;17.128;2024-03-25T01:21:06;98873.19;;;7.83
24740;BMP280;45234;48.148;17.128;2024-03-25T01:23:32;98878.13;;;7.91
24740;BMP280;45234;48.148;17.128;2024-03-25T01:25:58;98887.66;;;7.91
24740;BMP280;45234;48.148;17.128;2024-03-25T01:28:23;98878.38;;;7.90
24740;BMP280;45234;48.148;17.128;2024-03-25T01:30:50;98883.31;;;7.91
24740;BMP280;45234;48.148;17.128;2024-03-25T01:33:16;98874.38;;;7.94
24740;BMP280;45234;48.148;17.128;2024-03-25T01:35:42;98877.38;;;7.97
24740;BMP280;45234;48.148;17.128;2024-03-25T01:38:08;98875.53;;;8.05
24740;BMP280;45234;48.148;17.128;2024-03-25T01:40:34;98868.16;;;8.15
24740;BMP280;45234;48.148;17.128;2024-03-25T01:43:02;98870.19;;;8.19
24740;BMP280;45234;48.148;17.128;2024-03-25T01:45:33;98873.94;;;8.17
24740;BMP280;45234;48.148;17.128;2024-03-25T01:48:06;98864.59;;;8.22
24740;BMP280;45234;48.148;17.128;2024-03-25T01:50:34;98865.97;;;8.25
24740;BMP280;45234;48.148;17.128;2024-03-25T01:53:02;98861.00;;;8.30
24740;BMP280;45234;48.148;17.128;2024-03-25T01:55:29;98862.97;;;8.35
24740;BMP280;45234;48.148;17.128;2024-03-25T01:57:56;98863.34;;;8.38
24740;BMP280;45234;48.148;17.128;2024-03-25T02:00:24;98862.16;;;8.41
24740;BMP280;45234;48.148;17.128;2024-03-25T02:02:51;98858.16;;;8.45
24740;BMP280;45234;48.148;17.128;2024-03-25T02:05:18;98858.78;;;8.40
24740;BMP280;45234;48.148;17.128;2024-03-25T02:07:44;98861.72;;;8.44
24740;BMP280;45234;48.148;17.128;2024-03-25T02:10:11;98862.69;;;8.49
24740;BMP280;45234;48.148;17.128;2024-03-25T02:12:42;98859.31;;;8.49
24740;BMP280;45234;48.148;17.128;2024-03-25T02:15:10;98866.91;;;8.50
24740;BMP280;45234;48.148;17.128;2024-03-25T02:17:36;98853.19;;;8.50
24740;BMP280;45234;48.148;17.128;2024-03-25T02:20:03;98861.72;;;8.50
24740;BMP280;45234;48.148;17.128;2024-03-25T02:22:34;98865.09;;;8.51
24740;BMP280;45234;48.148;17.128;2024-03-25T02:25:01;98862.91;;;8.48
24740;BMP280;45234;48.148;17.128;2024-03-25T02:27:29;98862.91;;;8.48
24740;BMP280;45234;48.148;17.128;2024-03-25T02:30:08;98861.56;;;8.39
24740;BMP280;45234;48.148;17.128;2024-03-25T02:32:35;98866.53;;;8.40
24740;BMP280;45234;48.148;17.128;2024-03-25T02:35:03;98861.53;;;8.45
24740;BMP280;45234;48.148;17.128;2024-03-25T02:37:30;98859.31;;;8.49
24740;BMP280;45234;48.148;17.128;2024-03-25T02:39:58;98865.28;;;8.49
24740;BMP280;45234;48.148;17.128;2024-03-25T02:42:25;98874.00;;;8.55
24740;BMP280;45234;48.148;17.128;2024-03-25T02:44:55;98870.00;;;8.59
24740;BMP280;45234;48.148;17.128;2024-03-25T02:47:21;98860.31;;;8.61
24740;BMP280;45234;48.148;17.128;2024-03-25T02:49:48;98867.19;;;8.67
24740;BMP280;45234;48.148;17.128;2024-03-25T02:52:14;98868.41;;;8.71
24740;BMP280;45234;48.148;17.128;2024-03-25T02:54:40;98854.28;;;8.67
24740;BMP280;45234;48.148;17.128;2024-03-25T02:57:06;98855.28;;;8.66
24740;BMP280;45234;48.148;17.128;2024-03-25T02:59:32;98860.44;;;8.66
24740;BMP280;45234;48.148;17.128;2024-03-25T03:01:58;98848.75;;;8.64
24740;BMP280;45234;48.148;17.128;2024-03-25T03:04:24;98860.09;;;8.56
24740;BMP280;45234;48.148;17.128;2024-03-25T03:06:50;98862.88;;;8.54
24740;BMP280;45234;48.148;17.128;2024-03-25T03:09:15;98855.16;;;8.48
24740;BMP280;45234;48.148;17.128;2024-03-25T03:11:41;98857.75;;;8.48
24740;BMP280;45234;48.148;17.128;2024-03-25T03:14:08;98859.75;;;8.46
24740;BMP280;45234;48.148;17.128;2024-03-25T03:16:34;98864.31;;;8.44
24740;BMP280;45234;48.148;17.128;2024-03-25T03:19:00;98868.91;;;8.35
24740;BMP280;45234;48.148;17.128;2024-03-25T03:21:25;98863.38;;;8.32
24740;BMP280;45234;48.148;17.128;2024-03-25T03:23:51;98865.38;;;8.29
24740;BMP280;45234;48.148;17.128;2024-03-25T03:26:17;98864.75;;;8.27
24740;BMP280;45234;48.148;17.128;2024-03-25T03:28:43;98868.94;;;8.28
24740;BMP280;45234;48.148;17.128;2024-03-25T03:31:09;98865.19;;;8.31
24740;BMP280;45234;48.148;17.128;2024-03-25T03:33:35;98876.09;;;8.33
24740;BMP280;45234;48.148;17.128;2024-03-25T03:36:02;98875.06;;;8.34
24740;BMP280;45234;48.148;17.128;2024-03-25T03:38:28;98872.06;;;8.37
24740;BMP280;45234;48.148;17.128;2024-03-25T03:41:02;98876.09;;;8.33
24740;BMP280;45234;48.148;17.128;2024-03-25T03:43:29;98872.28;;;8.36
24740;BMP280;45234;48.148;17.128;2024-03-25T03:45:55;98874.88;;;8.36
24740;BMP280;45234;48.148;17.128;2024-03-25T03:48:21;98879.22;;;8.35
24740;BMP280;45234;48.148;17.128;2024-03-25T03:50:47;98875.84;;;8.35
24740;BMP280;45234;48.148;17.128;2024-03-25T03:53:13;98873.28;;;8.35
24740;BMP280;45234;48.148;17.128;2024-03-25T03:55:39;98871.69;;;8.34
24740;BMP280;45234;48.148;17.128;2024-03-25T03:58:05;98876.66;;;8.35
24740;BMP280;45234;48.148;17.128;2024-03-25T04:00:34;98874.88;;;8.36
24740;BMP280;45234;48.148;17.128;2024-03-25T04:03:03;98878.81;;;8.38
24740;BMP280;45234;48.148;17.128;2024-03-25T04:05:30;98878.09;;;8.31
24740;BMP280;45234;48.148;17.128;2024-03-25T04:07:56;98882.84;;;8.27
24740;BMP280;45234;48.148;17.128;2024-03-25T04:10:22;98881.09;;;8.21
24740;BMP280;45234;48.148;17.128;2024-03-25T04:12:48;98875.72;;;8.16
24740;BMP280;45234;48.148;17.128;2024-03-25T04:15:14;98890.19;;;8.17
24740;BMP280;45234;48.148;17.128;2024-03-25T04:17:44;98891.19;;;8.16
24740;BMP280;45234;48.148;17.128;2024-03-25T04:20:12;98882.06;;;8.14
24740;BMP280;45234;48.148;17.128;2024-03-25T04:22:41;98884.66;;;8.14
24740;BMP280;45234;48.148;17.128;2024-03-25T04:25:08;98894.19;;;8.13
24740;BMP280;45234;48.148;17.128;2024-03-25T04:27:39;98889.03;;;8.13
24740;BMP280;45234;48.148;17.128;2024-03-25T04:30:07;98896.41;;;8.10
24740;BMP280;45234;48.148;17.128;2024-03-25T04:32:34;98901.75;;;8.08
24740;BMP280;45234;48.148;17.128;2024-03-25T04:35:00;98895.59;;;8.03
24740;BMP280;45234;48.148;17.128;2024-03-25T04:37:27;98893.03;;;7.96
24740;BMP280;45234;48.148;17.128;2024-03-25T04:39:53;98891.22;;;7.96
24740;BMP280;45234;48.148;17.128;2024-03-25T04:42:19;98885.28;;;7.96
24740;BMP280;45234;48.148;17.128;2024-03-25T04:44:45;98890.63;;;7.94
24740;BMP280;45234;48.148;17.128;2024-03-25T04:47:11;98899.19;;;7.95
24740;BMP280;45234;48.148;17.128;2024-03-25T04:49:41;98896.38;;;7.96
24740;BMP280;45234;48.148;17.128;2024-03-25T04:52:07;98907.69;;;8.02
24740;BMP280;45234;48.148;17.128;2024-03-25T04:54:32;98904.72;;;8.05
24740;BMP280;45234;48.148;17.128;2024-03-25T04:56:58;98909.50;;;8.08
24740;BMP280;45234;48.148;17.128;2024-03-25T04:59:28;98914.66;;;8.08
24740;BMP280;45234;48.148;17.128;2024-03-25T05:01:54;98913.25;;;8.06
24740;BMP280;45234;48.148;17.128;2024-03-25T05:04:19;98921.78;;;8.06
24740;BMP280;45234;48.148;17.128;2024-03-25T05:06:46;98923.00;;;8.10
24740;BMP280;45234;48.148;17.128;2024-03-25T05:09:12;98920.78;;;8.14
24740;BMP280;45234;48.148;17.128;2024-03-25T05:11:37;98928.13;;;8.17
24740;BMP280;45234;48.148;17.128;2024-03-25T05:14:03;98931.50;;;8.17
24740;BMP280;45234;48.148;17.128;2024-03-25T05:16:29;98931.50;;;8.17
24740;BMP280;45234;48.148;17.128;2024-03-25T05:18:55;98940.84;;;8.18
24740;BMP280;45234;48.148;17.128;2024-03-25T05:21:21;98937.28;;;8.19
24740;BMP280;45234;48.148;17.128;2024-03-25T05:23:46;98938.28;;;8.18
24740;BMP280;45234;48.148;17.128;2024-03-25T05:26:13;98943.44;;;8.18
24740;BMP280;45234;48.148;17.128;2024-03-25T05:28:39;98951.97;;;8.19
24740;BMP280;45234;48.148;17.128;2024-03-25T05:31:11;98947.59;;;8.19
24740;BMP280;45234;48.148;17.128;2024-03-25T05:33:36;98956.94;;;8.20
24740;BMP280;45234;48.148;17.128;2024-03-25T05:36:03;98961.50;;;8.18
24740;BMP280;45234;48.148;17.128;2024-03-25T05:38:29;98964.47;;;8.22
24740;BMP280;45234;48.148;17.128;2024-03-25T05:40:55;98962.06;;;8.27
24740;BMP280;45234;48.148;17.128;2024-03-25T05:43:21;98963.22;;;8.38
24740;BMP280;45234;48.148;17.128;2024-03-25T05:45:56;98961.84;;;8.28
24740;BMP280;45234;48.148;17.128;2024-03-25T05:48:26;98959.91;;;8.31
24740;BMP280;45234;48.148;17.128;2024-03-25T05:50:58;98967.84;;;8.29
24740;BMP280;45234;48.148;17.128;2024-03-25T05:53:25;98961.03;;;8.35
24740;BMP280;45234;48.148;17.128;2024-03-25T05:55:51;98953.31;;;8.41
24740;BMP280;45234;48.148;17.128;2024-03-25T05:58:17;98961.75;;;8.68
24740;BMP280;45234;48.148;17.128;2024-03-25T06:00:43;98972.81;;;8.88
24740;BMP280;45234;48.148;17.128;2024-03-25T06:03:09;98972.19;;;9.00
24740;BMP280;45234;48.148;17.128;2024-03-25T06:05:34;98970.34;;;9.07
24740;BMP280;45234;48.148;17.128;2024-03-25T06:08:00;98960.63;;;9.40
24740;BMP280;45234;48.148;17.128;2024-03-25T06:10:26;98964.56;;;9.99
24740;BMP280;45234;48.148;17.128;2024-03-25T06:12:52;98966.31;;;10.23
24740;BMP280;45234;48.148;17.128;2024-03-25T06:15:18;98963.16;;;10.21
24740;BMP280;45234;48.148;17.128;2024-03-25T06:17:44;98962.56;;;10.01
24740;BMP280;45234;48.148;17.128;2024-03-25T06:20:10;98965.03;;;9.89
24740;BMP280;45234;48.148;17.128;2024-03-25T06:22:36;98973.00;;;9.88
24740;BMP280;45234;48.148;17.128;2024-03-25T06:25:02;98971.91;;;10.02
24740;BMP280;45234;48.148;17.128;2024-03-25T06:27:29;98964.88;;;10.09
24740;BMP280;45234;48.148;17.128;2024-03-25T06:29:57;98968.44;;;10.08
24740;BMP280;45234;48.148;17.128;2024-03-25T06:32:43;98973.72;;;9.95
24740;BMP280;45234;48.148;17.128;2024-03-25T06:35:27;98970.31;;;9.76
24740;BMP280;45234;48.148;17.128;2024-03-25T06:37:53;98975.78;;;9.61
24740;BMP280;45234;48.148;17.128;2024-03-25T06:40:19;98984.00;;;9.52
24740;BMP280;45234;48.148;17.128;2024-03-25T06:42:45;98987.50;;;9.39
24740;BMP280;45234;48.148;17.128;2024-03-25T06:45:11;98995.31;;;9.26
24740;BMP280;45234;48.148;17.128;2024-03-25T06:47:39;99005.91;;;9.18
24740;BMP280;45234;48.148;17.128;2024-03-25T06:50:05;98995.34;;;9.13
24740;BMP280;45234;48.148;17.128;2024-03-25T06:52:31;98996.63;;;9.04
24740;BMP280;45234;48.148;17.128;2024-03-25T06:54:57;98999.03;;;8.99
24740;BMP280;45234;48.148;17.128;2024-03-25T06:57:23;99005.38;;;9.03
24740;BMP280;45234;48.148;17.128;2024-03-25T06:59:49;99001.56;;;9.05
24740;BMP280;45234;48.148;17.128;2024-03-25T07:02:15;98999.75;;;9.12
24740;BMP280;45234;48.148;17.128;2024-03-25T07:04:41;99000.97;;;9.41
24740;BMP280;45234;48.148;17.128;2024-03-25T07:07:06;98992.34;;;10.10
24740;BMP280;45234;48.148;17.128;2024-03-25T07:09:34;99000.84;;;10.90
24740;BMP280;45234;48.148;17.128;2024-03-25T07:12:00;98991.97;;;11.28
24740;BMP280;45234;48.148;17.128;2024-03-25T07:14:25;98983.13;;;11.17
24740;BMP280;45234;48.148;17.128;2024-03-25T07:16:51;98988.47;;;11.04
24740;BMP280;45234;48.148;17.128;2024-03-25T07:19:17;98990.59;;;10.95
24740;BMP280;45234;48.148;17.128;2024-03-25T07:21:43;98999.06;;;10.73
24740;BMP280;45234;48.148;17.128;2024-03-25T07:24:09;99000.78;;;10.42
24740;BMP280;45234;48.148;17.128;2024-03-25T07:26:34;99007.88;;;10.28
24740;BMP280;45234;48.148;17.128;2024-03-25T07:29:01;99024.22;;;10.04
24740;BMP280;45234;48.148;17.128;2024-03-25T07:31:26;98996.16;;;9.83
24740;BMP280;45234;48.148;17.128;2024-03-25T07:33:52;99001.31;;;9.83
24740;BMP280;45234;48.148;17.128;2024-03-25T07:36:18;99013.66;;;9.81
24740;BMP280;45234;48.148;17.128;2024-03-25T07:38:44;99009.09;;;9.83
24740;BMP280;45234;48.148;17.128;2024-03-25T07:41:10;99013.25;;;9.84
24740;BMP280;45234;48.148;17.128;2024-03-25T07:43:36;99021.81;;;9.84
24740;BMP280;45234;48.148;17.128;2024-03-25T07:46:01;99021.84;;;9.78
24740;BMP280;45234;48.148;17.128;2024-03-25T07:48:27;99022.22;;;9.81
24740;BMP280;45234;48.148;17.128;2024-03-25T07:50:53;99031.13;;;9.92
24740;BMP280;45234;48.148;17.128;2024-03-25T07:53:19;99028.06;;;10.02
24740;BMP280;45234;48.148;17.128;2024-03-25T07:55:45;99035.56;;;10.10
24740;BMP280;45234;48.148;17.128;2024-03-25T07:58:11;99041.25;;;10.18
24740;BMP280;45234;48.148;17.128;2024-03-25T08:00:37;99037.94;;;10.29
24740;BMP280;45234;48.148;17.128;2024-03-25T08:03:03;99043.13;;;10.29
24740;BMP280;45234;48.148;17.128;2024-03-25T08:05:30;99049.91;;;10.31
24740;BMP280;45234;48.148;17.128;2024-03-25T08:07:56;99048.91;;;10.32
24740;BMP280;45234;48.148;17.128;2024-03-25T08:10:22;99047.81;;;10.39
24740;BMP280;45234;48.148;17.128;2024-03-25T08:12:48;99038.97;;;10.47
24740;BMP280;45234;48.148;17.128;2024-03-25T08:15:14;99049.53;;;10.52
24740;BMP280;45234;48.148;17.128;2024-03-25T08:17:40;99040.00;;;10.64
24740;BMP280;45234;48.148;17.128;2024-03-25T08:20:06;99041.50;;;10.72
24740;BMP280;45234;48.148;17.128;2024-03-25T08:22:32;99046.06;;;10.76
24740;BMP280;45234;48.148;17.128;2024-03-25T08:24:57;99049.72;;;10.87
24740;BMP280;45234;48.148;17.128;2024-03-25T08:27:23;99051.38;;;11.00
24740;BMP280;45234;48.148;17.128;2024-03-25T08:29:49;99049.63;;;11.12
24740;BMP280;45234;48.148;17.128;2024-03-25T08:32:19;99043.59;;;11.48
24740;BMP280;45234;48.148;17.128;2024-03-25T08:34:45;99050.16;;;11.74
24740;BMP280;45234;48.148;17.128;2024-03-25T08:37:11;99048.69;;;11.78
24740;BMP280;45234;48.148;17.128;2024-03-25T08:39:37;99058.13;;;12.02
24740;BMP280;45234;48.148;17.128;2024-03-25T08:42:02;99039.25;;;12.42
24740;BMP280;45234;48.148;17.128;2024-03-25T08:44:28;99053.56;;;12.56
24740;BMP280;45234;48.148;17.128;2024-03-25T08:46:54;99065.16;;;13.17
24740;BMP280;45234;48.148;17.128;2024-03-25T08:49:20;99070.28;;;13.74
24740;BMP280;45234;48.148;17.128;2024-03-25T08:51:46;99064.69;;;14.20
24740;BMP280;45234;48.148;17.128;2024-03-25T08:54:12;99065.75;;;14.63
24740;BMP280;45234;48.148;17.128;2024-03-25T08:56:38;99076.06;;;14.74
24740;BMP280;45234;48.148;17.128;2024-03-25T08:59:04;99056.69;;;14.92
24740;BMP280;45234;48.148;17.128;2024-03-25T09:01:31;99074.81;;;14.77
24740;BMP280;45234;48.148;17.128;2024-03-25T09:03:57;99070.28;;;14.94
24740;BMP280;45234;48.148;17.128;2024-03-25T09:06:23;99072.13;;;14.72
24740;BMP280;45234;48.148;17.128;2024-03-25T09:08:49;99068.72;;;14.50
24740;BMP280;45234;48.148;17.128;2024-03-25T09:11:33;99080.69;;;14.67
24740;BMP280;45234;48.148;17.128;2024-03-25T09:13:59;99084.63;;;14.70
24740;BMP280;45234;48.148;17.128;2024-03-25T09:16:25;99076.06;;;14.53
24740;BMP280;45234;48.148;17.128;2024-03-25T09:18:51;99070.63;;;14.76
24740;BMP280;45234;48.148;17.128;2024-03-25T09:21:17;99077.72;;;14.59
24740;BMP280;45234;48.148;17.128;2024-03-25T09:23:43;99070.13;;;14.35
24740;BMP280;45234;48.148;17.128;2024-03-25T09:26:08;99089.63;;;14.33
24740;BMP280;45234;48.148;17.128;2024-03-25T09:28:36;99083.44;;;14.17
24740;BMP280;45234;48.148;17.128;2024-03-25T09:31:03;99081.84;;;14.16
24740;BMP280;45234;48.148;17.128;2024-03-25T09:33:31;99069.66;;;14.22
24740;BMP280;45234;48.148;17.128;2024-03-25T09:35:57;99070.84;;;13.92
24740;BMP280;45234;48.148;17.128;2024-03-25T09:38:24;99081.28;;;13.47
24740;BMP280;45234;48.148;17.128;2024-03-25T09:40:52;99085.56;;;13.08
24740;BMP280;45234;48.148;17.128;2024-03-25T09:43:44;99085.56;;;12.96
24740;BMP280;45234;48.148;17.128;2024-03-25T09:46:12;99070.28;;;13.00
24740;BMP280;45234;48.148;17.128;2024-03-25T09:48:38;99079.44;;;13.31
24740;BMP280;45234;48.148;17.128;2024-03-25T09:51:05;99077.63;;;13.60
24740;BMP280;45234;48.148;17.128;2024-03-25T09:53:31;99071.94;;;13.80
24740;BMP280;45234;48.148;17.128;2024-03-25T09:55:57;99068.84;;;13.83
24740;BMP280;45234;48.148;17.128;2024-03-25T09:58:25;99044.25;;;13.74
24740;BMP280;45234;48.148;17.128;2024-03-25T10:00:52;99068.78;;;13.61
24740;BMP280;45234;48.148;17.128;2024-03-25T10:03:18;99074.84;;;13.66
24740;BMP280;45234;48.148;17.128;2024-03-25T10:05:44;99071.03;;;13.57
24740;BMP280;45234;48.148;17.128;2024-03-25T10:08:10;99065.53;;;13.54
24740;BMP280;45234;48.148;17.128;2024-03-25T10:10:36;99063.97;;;13.69
24740;BMP280;45234;48.148;17.128;2024-03-25T10:13:05;99062.53;;;13.79
24740;BMP280;45234;48.148;17.128;2024-03-25T10:15:33;99059.59;;;13.75
24740;BMP280;45234;48.148;17.128;2024-03-25T10:17:59;99070.28;;;13.74
24740;BMP280;45234;48.148;17.128;2024-03-25T10:20:25;99068.44;;;13.57
24740;BMP280;45234;48.148;17.128;2024-03-25T10:22:51;99066.44;;;13.31
24740;BMP280;45234;48.148;17.128;2024-03-25T10:25:22;99062.94;;;13.09
24740;BMP280;45234;48.148;17.128;2024-03-25T10:27:55;99061.16;;;12.97
24740;BMP280;45234;48.148;17.128;2024-03-25T10:30:21;99061.41;;;12.96
24740;BMP280;45234;48.148;17.128;2024-03-25T10:33:06;99068.75;;;12.87
24740;BMP280;45234;48.148;17.128;2024-03-25T10:35:36;99060.13;;;12.98
24740;BMP280;45234;48.148;17.128;2024-03-25T10:38:04;99073.25;;;12.92
24740;BMP280;45234;48.148;17.128;2024-03-25T10:40:39;99074.00;;;12.76
24740;BMP280;45234;48.148;17.128;2024-03-25T10:43:07;99075.91;;;12.80
24740;BMP280;45234;48.148;17.128;2024-03-25T10:45:49;99077.00;;;12.96
24740;BMP280;45234;48.148;17.128;2024-03-25T10:48:27;99070.97;;;13.07
24740;BMP280;45234;48.148;17.128;2024-03-25T10:50:55;99079.34;;;13.26
24740;BMP280;45234;48.148;17.128;2024-03-25T10:53:22;99090.28;;;13.40
24740;BMP280;45234;48.148;17.128;2024-03-25T10:55:53;99087.09;;;13.21
24740;BMP280;45234;48.148;17.128;2024-03-25T10:58:21;99082.00;;;13.14
24740;BMP280;45234;48.148;17.128;2024-03-25T11:00:49;99075.72;;;13.27
24740;BMP280;45234;48.148;17.128;2024-03-25T11:03:16;99080.94;;;13.27
24740;BMP280;45234;48.148;17.128;2024-03-25T11:05:42;99067.94;;;12.98
24740;BMP280;45234;48.148;17.128;2024-03-25T11:08:13;99072.00;;;12.94
24740;BMP280;45234;48.148;17.128;2024-03-25T11:10:46;99074.84;;;12.93
24740;BMP280;45234;48.148;17.128;2024-03-25T11:13:19;99065.22;;;12.93
24740;BMP280;45234;48.148;17.128;2024-03-25T11:15:47;99066.16;;;12.87
24740;BMP280;45234;48.148;17.128;2024-03-25T11:18:18;99066.91;;;12.99
24740;BMP280;45234;48.148;17.128;2024-03-25T11:21:03;99055.78;;;13.04
24740;BMP280;45234;48.148;17.128;2024-03-25T11:23:40;99065.88;;;13.00
24740;BMP280;45234;48.148;17.128;2024-03-25T11:26:26;99052.88;;;13.00
24740;BMP280;45234;48.148;17.128;2024-03-25T11:28:53;99049.06;;;13.20
24740;BMP280;45234;48.148;17.128;2024-03-25T11:31:21;99051.50;;;13.26
24740;BMP280;45234;48.148;17.128;2024-03-25T11:33:47;99050.97;;;13.24
24740;BMP280;45234;48.148;17.128;2024-03-25T11:36:14;99052.91;;;13.29
24740;BMP280;45234;48.148;17.128;2024-03-25T11:38:40;99057.16;;;13.35
24740;BMP280;45234;48.148;17.128;2024-03-25T11:41:09;99055.25;;;13.47
24740;BMP280;45234;48.148;17.128;2024-03-25T11:43:36;99048.56;;;13.51
24740;BMP280;45234;48.148;17.128;2024-03-25T11:46:02;99048.59;;;13.23
24740;BMP280;45234;48.148;17.128;2024-03-25T11:48:32;99039.28;;;13.27
24740;BMP280;45234;48.148;17.128;2024-03-25T11:50:58;99044.22;;;13.12
24740;BMP280;45234;48.148;17.128;2024-03-25T11:53:26;99038.97;;;13.07
24740;BMP280;45234;48.148;17.128;2024-03-25T11:55:53;99042.56;;;13.06
24740;BMP280;45234;48.148;17.128;2024-03-25T11:58:19;99038.59;;;13.03
24740;BMP280;45234;48.148;17.128;2024-03-25T12:00:45;99040.06;;;13.11
24740;BMP280;45234;48.148;17.128;2024-03-25T12:03:14;99046.38;;;13.15
24740;BMP280;45234;48.148;17.128;2024-03-25T12:05:41;99036.91;;;13.25
24740;BMP280;45234;48.148;17.128;2024-03-25T12:08:09;99031.59;;;13.32
24740;BMP280;45234;48.148;17.128;2024-03-25T12:10:39;99030.00;;;13.31
24740;BMP280;45234;48.148;17.128;2024-03-25T12:13:25;99031.72;;;13.25
24740;BMP280;45234;48.148;17.128;2024-03-25T12:15:51;99013.22;;;13.22
24740;BMP280;45234;48.148;17.128;2024-03-25T12:18:21;99013.00;;;13.40
24740;BMP280;45234;48.148;17.128;2024-03-25T12:20:47;99020.25;;;13.71
24740;BMP280;45234;48.148;17.128;2024-03-25T12:23:13;99022.31;;;14.08
24740;BMP280;45234;48.148;17.128;2024-03-25T12:25:39;99026.66;;;14.41
24740;BMP280;45234;48.148;17.128;2024-03-25T12:28:09;99030.56;;;14.43
24740;BMP280;45234;48.148;17.128;2024-03-25T12:30:49;99034.00;;;14.44
24740;BMP280;45234;48.148;17.128;2024-03-25T12:33:16;99032.88;;;14.62
24740;BMP280;45234;48.148;17.128;2024-03-25T12:35:46;99042.97;;;14.53
24740;BMP280;45234;48.148;17.128;2024-03-25T12:38:22;99044.34;;;14.17
24740;BMP280;45234;48.148;17.128;2024-03-25T12:40:49;99041.75;;;14.00
24740;BMP280;45234;48.148;17.128;2024-03-25T12:43:15;99036.34;;;13.85
24740;BMP280;45234;48.148;17.128;2024-03-25T12:45:41;99032.00;;;13.91
24740;BMP280;45234;48.148;17.128;2024-03-25T12:48:08;99032.06;;;13.79
24740;BMP280;45234;48.148;17.128;2024-03-25T12:50:34;99041.91;;;13.44
24740;BMP280;45234;48.148;17.128;2024-03-25T12:53:00;99031.94;;;13.52
24740;BMP280;45234;48.148;17.128;2024-03-25T12:55:26;99035.88;;;13.38
24740;BMP280;45234;48.148;17.128;2024-03-25T12:57:52;99036.13;;;13.25
24740;BMP280;45234;48.148;17.128;2024-03-25T13:00:18;99034.75;;;13.34
24740;BMP280;45234;48.148;17.128;2024-03-25T13:02:45;99044.34;;;13.17
24740;BMP280;45234;48.148;17.128;2024-03-25T13:05:11;99032.00;;;13.12
24740;BMP280;45234;48.148;17.128;2024-03-25T13:07:36;99032.34;;;12.87
24740;BMP280;45234;48.148;17.128;2024-03-25T13:10:02;99031.13;;;12.78
24740;BMP280;45234;48.148;17.128;2024-03-25T13:12:30;99033.28;;;12.70
24740;BMP280;45234;48.148;17.128;2024-03-25T13:14:56;99041.13;;;12.58
24740;BMP280;45234;48.148;17.128;2024-03-25T13:17:24;99037.16;;;12.67
24740;BMP280;45234;48.148;17.128;2024-03-25T13:19:50;99034.06;;;12.70
24740;BMP280;45234;48.148;17.128;2024-03-25T13:22:16;99046.19;;;12.76
24740;BMP280;45234;48.148;17.128;2024-03-25T13:24:42;99039.31;;;12.98
24740;BMP280;45234;48.148;17.128;2024-03-25T13:27:08;99046.94;;;13.17
24740;BMP280;45234;48.148;17.128;2024-03-25T13:29:34;99033.47;;;13.20
24740;BMP280;45234;48.148;17.128;2024-03-25T13:32:03;99032.22;;;13.22
24740;BMP280;45234;48.148;17.128;2024-03-25T13:34:29;99028.31;;;13.25
24740;BMP280;45234;48.148;17.128;2024-03-25T13:36:55;99023.84;;;13.20
24740;BMP280;45234;48.148;17.128;2024-03-25T13:39:21;99023.63;;;13.22
24740;BMP280;45234;48.148;17.128;2024-03-25T13:41:46;99027.53;;;13.24
24740;BMP280;45234;48.148;17.128;2024-03-25T13:44:13;99032.06;;;13.29
24740;BMP280;45234;48.148;17.128;2024-03-25T13:46:39;99028.50;;;13.35
24740;BMP280;45234;48.148;17.128;2024-03-25T13:49:05;99030.66;;;13.38
24740;BMP280;45234;48.148;17.128;2024-03-25T13:51:31;99035.56;;;13.51
24740;BMP280;45234;48.148;17.128;2024-03-25T13:53:57;99020.97;;;13.67
24740;BMP280;45234;48.148;17.128;2024-03-25T13:56:23;99024.50;;;13.78
24740;BMP280;45234;48.148;17.128;2024-03-25T13:59:01;99017.31;;;13.85
24740;BMP280;45234;48.148;17.128;2024-03-25T14:01:27;99020.47;;;14.25
24740;BMP280;45234;48.148;17.128;2024-03-25T14:03:53;99020.78;;;14.51